createdAt,value
2022-08-07T00:02:35.350Z,20.15
2022-08-07T00:04:05.958Z,20.13
2022-08-07T00:06:33.947Z,20.17
2022-08-07T00:09:16.450Z,20.08
2022-08-07T00:11:54.187Z,20.09
2022-08-07T00:14:30.034Z,20.22
2022-08-07T00:17:01.637Z,20.10
2022-08-07T00:19:59.969Z,19.86
2022-08-07T00:22:24.679Z,19.86
2022-08-07T00:25:15.837Z,20.09
2022-08-07T00:27:52.255Z,19.93
2022-08-07T00:30:27.670Z,20.04
2022-08-07T00:32:59.887Z,20.13
2022-08-07T00:35:29.696Z,20.07
2022-08-07T00:37:57.350Z,20.50
2022-08-07T00:40:36.188Z,20.19
2022-08-07T00:43:09.892Z,19.99
2022-08-07T00:45:38.531Z,19.96
2022-08-07T00:48:08.846Z,19.88
2022-08-07T00:50:46.190Z,20.15
2022-08-07T00:53:20.351Z,20.19
2022-08-07T00:56:02.502Z,20.04
2022-08-07T00:58:30.423Z,20.12
2022-08-07T01:00:57.166Z,20.33
2022-08-07T01:03:54.736Z,20.38
2022-08-07T01:06:10.820Z,20.32
2022-08-07T01:08:43.897Z,20.25
2022-08-07T01:12:04.821Z,20.26
2022-08-07T01:14:09.151Z,20.19
2022-08-07T01:16:36.822Z,20.09
2022-08-07T01:19:10.898Z,20.25
2022-08-07T01:21:48.189Z,20.33
2022-08-07T01:24:21.148Z,20.15
2022-08-07T01:26:52.059Z,19.99
2022-08-07T01:29:23.245Z,19.92
2022-08-07T01:31:52.619Z,19.86
2022-08-07T01:34:20.422Z,20.20
2022-08-07T01:36:58.960Z,19.93
2022-08-07T01:39:40.886Z,20.04
2022-08-07T01:42:38.619Z,20.07
2022-08-07T01:45:17.940Z,19.65
2022-08-07T01:48:20.198Z,19.88
2022-08-07T01:50:38.217Z,19.95
2022-08-07T01:53:11.782Z,20.09
2022-08-07T01:55:59.775Z,20.07
2022-08-07T01:58:33.363Z,19.98
2022-08-07T02:01:10.012Z,19.88
2022-08-07T02:04:03.577Z,20.08
2022-08-07T02:06:34.383Z,20.07
2022-08-07T02:09:09.250Z,20.02
2022-08-07T02:12:02.771Z,20.03
2022-08-07T02:14:40.195Z,20.03
2022-08-07T02:17:16.597Z,20.02
2022-08-07T02:20:07.093Z,19.89
2022-08-07T02:22:41.092Z,19.84
2022-08-07T02:25:17.063Z,19.97
2022-08-07T02:27:54.426Z,19.80
2022-08-07T02:30:23.915Z,19.69
2022-08-07T02:33:00.705Z,19.41
2022-08-07T02:36:29.246Z,19.50
2022-08-07T02:38:31.585Z,19.26
2022-08-07T02:41:03.643Z,19.41
2022-08-07T02:43:35.327Z,19.44
2022-08-07T02:46:07.420Z,19.33
2022-08-07T02:48:35.836Z,19.52
2022-08-07T02:51:14.319Z,19.34
2022-08-07T02:53:57.973Z,19.38
2022-08-07T02:56:29.720Z,19.17
2022-08-07T02:59:02.131Z,19.14
2022-08-07T03:01:36.106Z,19.36
2022-08-07T03:04:12.683Z,19.53
2022-08-07T03:06:44.691Z,19.15
2022-08-07T03:09:14.618Z,19.37
2022-08-07T03:12:03.731Z,19.34
2022-08-07T03:14:36.203Z,19.21
2022-08-07T03:17:04.976Z,19.53
2022-08-07T03:19:37.285Z,19.22
2022-08-07T03:22:07.087Z,19.60
2022-08-07T03:24:36.686Z,19.65
2022-08-07T03:27:09.091Z,19.35
2022-08-07T03:29:51.413Z,18.80
2022-08-07T03:32:34.190Z,18.90
2022-08-07T03:35:17.346Z,18.76
2022-08-07T03:37:54.172Z,19.21
2022-08-07T03:40:31.227Z,19.21
2022-08-07T03:43:10.132Z,18.86
2022-08-07T03:45:43.700Z,19.26
2022-08-07T03:48:16.653Z,19.57
2022-08-07T03:50:52.065Z,19.15
2022-08-07T03:54:00.573Z,19.05
2022-08-07T03:56:19.147Z,18.81
2022-08-07T03:59:09.858Z,19.18
2022-08-07T04:01:45.769Z,19.10
2022-08-07T04:04:18.577Z,19.17
2022-08-07T04:06:50.825Z,19.23
2022-08-07T04:09:23.293Z,19.19
2022-08-07T04:12:23.336Z,19.07
2022-08-07T04:14:43.835Z,19.27
2022-08-07T04:17:21.110Z,19.38
2022-08-07T04:19:51.996Z,19.38
2022-08-07T04:22:28.523Z,19.28
2022-08-07T04:25:02.060Z,19.41
2022-08-07T04:27:35.544Z,19.33
2022-08-07T04:30:35.562Z,19.51
2022-08-07T04:33:07.465Z,19.79
2022-08-07T04:35:39.718Z,19.74
2022-08-07T04:38:15.423Z,19.86
2022-08-07T04:40:51.859Z,19.56
2022-08-07T04:44:10.241Z,19.71
2022-08-07T04:46:42.797Z,20.19
2022-08-07T04:49:37.498Z,20.33
2022-08-07T04:52:14.677Z,20.37
2022-08-07T04:54:59.543Z,20.15
2022-08-07T04:58:10.607Z,20.22
2022-08-07T05:00:43.655Z,20.53
2022-08-07T05:04:06.910Z,20.74
2022-08-07T05:06:53.421Z,21.18
2022-08-07T05:09:45.608Z,21.75
2022-08-07T05:12:27.169Z,21.91
2022-08-07T05:15:21.708Z,21.28
2022-08-07T05:18:00.415Z,21.25
2022-08-07T05:20:50.269Z,21.67
2022-08-07T05:23:50.075Z,21.34
2022-08-07T05:26:24.032Z,21.24
2022-08-07T05:29:04.067Z,21.00
2022-08-07T05:31:38.383Z,20.59
2022-08-07T05:34:12.114Z,20.57
2022-08-07T05:36:44.603Z,20.49
2022-08-07T05:40:13.783Z,20.38
2022-08-07T05:42:34.508Z,20.53
2022-08-07T05:45:14.768Z,20.67
2022-08-07T05:48:01.617Z,20.69
2022-08-07T05:50:34.410Z,21.14
2022-08-07T05:53:03.319Z,21.29
2022-08-07T05:56:01.915Z,21.47
2022-08-07T05:58:36.323Z,20.81
2022-08-07T06:01:11.362Z,21.05
2022-08-07T06:03:56.953Z,20.91
2022-08-07T06:06:29.843Z,21.26
2022-08-07T06:09:04.753Z,21.35
2022-08-07T06:11:34.830Z,21.31
2022-08-07T06:14:12.999Z,21.05
2022-08-07T06:16:56.216Z,21.02
2022-08-07T06:19:49.954Z,21.02
2022-08-07T06:22:27.316Z,21.33
2022-08-07T06:25:05.207Z,21.61
2022-08-07T06:28:00.350Z,22.16
2022-08-07T06:30:24.124Z,22.30
2022-08-07T06:32:58.998Z,21.77
2022-08-07T06:35:39.176Z,22.52
2022-08-07T06:38:20.572Z,22.59
2022-08-07T06:40:53.233Z,23.02
2022-08-07T06:43:24.536Z,23.18
2022-08-07T06:46:13.489Z,23.81
2022-08-07T06:48:42.219Z,24.00
2022-08-07T06:51:31.032Z,24.06
2022-08-07T06:55:28.822Z,23.03
2022-08-07T06:56:53.786Z,23.88
2022-08-07T07:00:14.547Z,24.03
2022-08-07T07:02:53.293Z,24.04
2022-08-07T07:05:12.712Z,24.27
2022-08-07T07:07:59.816Z,24.42
2022-08-07T07:10:33.313Z,23.13
2022-08-07T07:13:16.288Z,23.77
2022-08-07T07:16:07.700Z,24.20
2022-08-07T07:18:56.167Z,23.23
2022-08-07T07:21:40.478Z,23.79
2022-08-07T07:24:16.766Z,24.83
2022-08-07T07:26:52.137Z,23.30
2022-08-07T07:29:39.031Z,23.95
2022-08-07T07:32:12.782Z,25.67
2022-08-07T07:34:48.614Z,26.30
2022-08-07T07:37:43.932Z,25.19
2022-08-07T07:40:10.249Z,25.44
2022-08-07T07:42:47.019Z,25.97
2022-08-07T07:45:24.518Z,25.36
2022-08-07T07:48:11.232Z,26.20
2022-08-07T07:50:40.057Z,26.13
2022-08-07T07:53:13.519Z,25.73
2022-08-07T07:55:54.989Z,25.44
2022-08-07T07:58:31.347Z,26.50
2022-08-07T08:02:01.888Z,27.47
2022-08-07T08:04:10.873Z,27.79
2022-08-07T08:06:50.889Z,27.09
2022-08-07T08:09:23.837Z,26.88
2022-08-07T08:12:02.035Z,26.84
2022-08-07T08:14:36.100Z,26.64
2022-08-07T08:17:55.433Z,25.84
2022-08-07T08:20:18.853Z,26.91
2022-08-07T08:23:08.442Z,27.10
2022-08-07T08:25:58.222Z,26.62
2022-08-07T08:28:38.441Z,26.46
2022-08-07T08:31:15.759Z,26.32
2022-08-07T08:33:48.964Z,26.92
2022-08-07T08:36:25.601Z,28.45
2022-08-07T08:39:01.733Z,28.79
2022-08-07T08:41:58.298Z,27.83
2022-08-07T08:44:29.635Z,26.30
2022-08-07T08:47:17.275Z,27.51
2022-08-07T08:50:35.304Z,26.98
2022-08-07T08:53:14.090Z,28.46
2022-08-07T08:55:55.581Z,28.58
2022-08-07T08:58:40.261Z,28.78
2022-08-07T09:01:18.354Z,28.44
2022-08-07T09:03:56.712Z,27.83
2022-08-07T09:06:37.489Z,27.94
2022-08-07T09:09:57.210Z,29.90
2022-08-07T09:12:53.144Z,30.17
2022-08-07T09:16:25.842Z,29.35
2022-08-07T09:18:58.507Z,29.79
2022-08-07T09:21:57.960Z,26.70
2022-08-07T09:24:55.124Z,27.78
2022-08-07T09:28:00.671Z,26.79
2022-08-07T09:30:58.430Z,28.18
2022-08-07T09:33:57.237Z,28.89
2022-08-07T09:36:37.178Z,29.55
2022-08-07T09:39:52.651Z,29.48
2022-08-07T09:42:32.966Z,29.69
2022-08-07T09:47:25.884Z,29.80
2022-08-07T09:48:50.159Z,30.79
2022-08-07T09:52:15.407Z,31.31
2022-08-07T09:54:27.069Z,32.63
2022-08-07T09:57:07.249Z,33.35
2022-08-07T10:00:05.457Z,32.75
2022-08-07T10:02:53.652Z,30.50
2022-08-07T10:06:00.067Z,31.70
2022-08-07T10:08:58.392Z,32.03
2022-08-07T10:12:03.094Z,30.75
2022-08-07T10:14:55.012Z,29.98
2022-08-07T10:18:01.596Z,28.43
2022-08-07T10:22:14.235Z,31.04
2022-08-07T10:24:49.176Z,30.54
2022-08-07T10:27:51.319Z,31.53
2022-08-07T10:30:24.949Z,32.25
2022-08-07T10:34:06.748Z,30.85
2022-08-07T10:36:36.070Z,29.33
2022-08-07T10:39:41.910Z,32.09
2022-08-07T10:42:21.010Z,30.81
2022-08-07T10:45:09.837Z,32.61
2022-08-07T10:47:53.689Z,34.56
2022-08-07T10:50:34.102Z,34.72
2022-08-07T10:53:09.047Z,35.30
2022-08-07T10:55:46.326Z,35.03
2022-08-07T10:58:12.984Z,34.71
2022-08-07T11:01:11.352Z,35.53
2022-08-07T11:03:52.511Z,34.72
2022-08-07T11:06:32.146Z,32.83
2022-08-07T11:09:04.301Z,31.97
2022-08-07T11:12:01.338Z,32.09
2022-08-07T11:14:46.406Z,31.84
2022-08-07T11:17:42.746Z,30.96
2022-08-07T11:20:24.844Z,29.89
2022-08-07T11:23:01.638Z,30.42
2022-08-07T11:25:49.775Z,30.09
2022-08-07T11:28:41.242Z,30.38
2022-08-07T11:31:11.982Z,30.62
2022-08-07T11:33:54.137Z,30.52
2022-08-07T11:36:30.593Z,30.13
2022-08-07T11:39:09.583Z,29.90
2022-08-07T11:42:01.688Z,29.23
2022-08-07T11:44:52.633Z,28.98
2022-08-07T11:47:56.034Z,28.77
2022-08-07T11:50:58.603Z,29.21
2022-08-07T11:53:37.278Z,29.40
2022-08-07T11:56:28.001Z,29.70
2022-08-07T12:00:12.128Z,29.19
2022-08-07T12:02:53.841Z,29.56
2022-08-07T12:05:47.328Z,29.02
2022-08-07T12:08:37.247Z,28.67
2022-08-07T12:11:21.271Z,29.22
2022-08-07T12:14:08.485Z,29.25
2022-08-07T12:16:42.536Z,29.47
2022-08-07T12:19:35.557Z,28.70
2022-08-07T12:22:56.463Z,28.17
2022-08-07T12:26:03.022Z,27.54
2022-08-07T12:28:57.440Z,28.66
2022-08-07T12:31:53.176Z,28.08
2022-08-07T12:34:34.696Z,28.24
2022-08-07T12:37:08.332Z,27.75
2022-08-07T12:39:51.320Z,28.01
2022-08-07T12:42:27.748Z,27.89
2022-08-07T12:44:58.037Z,27.69
2022-08-07T12:47:37.276Z,28.08
2022-08-07T12:50:34.027Z,27.71
2022-08-07T12:53:18.053Z,27.84
2022-08-07T12:56:09.239Z,27.64
2022-08-07T12:58:42.927Z,27.05
2022-08-07T13:02:03.202Z,27.10
2022-08-07T13:04:36.583Z,27.10
2022-08-07T13:08:13.494Z,27.16
2022-08-07T13:10:56.576Z,27.60
2022-08-07T13:13:48.698Z,27.70
2022-08-07T13:16:36.553Z,27.50
2022-08-07T13:19:50.695Z,27.75
2022-08-07T13:22:31.685Z,27.30
2022-08-07T13:25:00.467Z,26.96
2022-08-07T13:28:05.716Z,27.40
2022-08-07T13:30:39.864Z,27.37
2022-08-07T13:33:46.075Z,27.16
2022-08-07T13:36:05.964Z,27.36
2022-08-07T13:38:42.895Z,27.27
2022-08-07T13:41:35.661Z,27.95
2022-08-07T13:44:10.691Z,27.89
2022-08-07T13:46:49.331Z,27.58
2022-08-07T13:50:34.376Z,27.95
2022-08-07T13:52:31.697Z,28.08
2022-08-07T13:54:57.516Z,27.93
2022-08-07T13:57:38.192Z,28.08
2022-08-07T14:00:08.575Z,28.45
2022-08-07T14:02:56.516Z,28.42
2022-08-07T14:05:24.930Z,27.55
2022-08-07T14:08:06.649Z,27.82
2022-08-07T14:10:42.376Z,27.38
2022-08-07T14:13:16.558Z,27.60
2022-08-07T14:15:51.969Z,27.41
2022-08-07T14:18:44.688Z,26.93
2022-08-07T14:22:41.208Z,27.11
2022-08-07T14:24:28.060Z,27.64
2022-08-07T14:26:57.046Z,27.66
2022-08-07T14:30:06.629Z,27.60
2022-08-07T14:32:19.423Z,27.08
2022-08-07T14:34:48.220Z,27.30
2022-08-07T14:37:32.976Z,27.39
2022-08-07T14:40:16.128Z,27.20
2022-08-07T14:43:55.204Z,27.25
2022-08-07T14:45:51.386Z,27.47
2022-08-07T14:48:27.332Z,27.52
2022-08-07T14:50:57.864Z,27.54
2022-08-07T14:54:03.606Z,27.57
2022-08-07T14:56:29.597Z,27.29
2022-08-07T14:59:02.129Z,27.24
2022-08-07T15:01:42.927Z,27.16
2022-08-07T15:04:21.765Z,27.07
2022-08-07T15:06:52.755Z,27.06
2022-08-07T15:09:59.978Z,26.94
2022-08-07T15:12:36.636Z,27.06
2022-08-07T15:15:17.413Z,27.11
2022-08-07T15:17:57.464Z,26.64
2022-08-07T15:26:20.734Z,26.91
2022-08-07T15:28:58.456Z,26.75
2022-08-07T15:32:01.274Z,26.75
2022-08-07T15:34:17.197Z,26.51
2022-08-07T15:37:03.414Z,26.60
2022-08-07T15:42:43.603Z,26.48
2022-08-07T15:48:30.759Z,26.64
2022-08-07T15:51:07.824Z,26.47
2022-08-07T15:53:52.779Z,26.40
2022-08-07T15:56:24.664Z,26.59
2022-08-07T15:58:59.918Z,26.29
2022-08-07T16:01:38.582Z,26.29
2022-08-07T16:04:15.628Z,26.56
2022-08-07T16:06:52.804Z,26.25
2022-08-07T16:09:42.091Z,26.05
2022-08-07T16:12:31.605Z,26.15
2022-08-07T16:14:59.123Z,25.95
2022-08-07T16:18:02.003Z,26.01
2022-08-07T16:20:55.117Z,26.09
2022-08-07T16:23:53.409Z,25.93
2022-08-07T16:26:30.445Z,25.79
2022-08-07T16:30:09.926Z,25.82
2022-08-07T16:32:34.568Z,25.89
2022-08-07T16:35:58.906Z,25.91
2022-08-07T16:39:01.153Z,25.63
2022-08-07T16:41:54.399Z,25.70
2022-08-07T16:45:15.050Z,25.70
2022-08-07T16:48:08.069Z,25.47
2022-08-07T16:51:07.401Z,25.43
2022-08-07T16:54:11.464Z,25.35
2022-08-07T16:57:15.377Z,25.51
2022-08-07T17:00:14.923Z,25.84
2022-08-07T17:03:07.806Z,26.25
2022-08-07T17:06:26.586Z,26.09
2022-08-07T17:09:10.962Z,26.45
2022-08-07T17:12:33.488Z,25.98
2022-08-07T17:15:16.001Z,26.46
2022-08-07T17:17:47.506Z,26.66
2022-08-07T17:20:37.809Z,26.32
2022-08-07T17:23:22.595Z,26.05
2022-08-07T17:26:23.618Z,26.36
2022-08-07T17:30:12.743Z,26.18
2022-08-07T17:32:30.423Z,26.11
2022-08-07T17:35:49.852Z,26.03
2022-08-07T17:38:08.392Z,25.76
2022-08-07T17:42:00.656Z,25.96
2022-08-07T17:44:10.458Z,26.30
2022-08-07T17:46:52.421Z,25.85
2022-08-07T17:49:22.927Z,25.52
2022-08-07T17:52:00.278Z,25.63
2022-08-07T17:54:54.084Z,25.60
2022-08-07T17:58:01.466Z,25.48
2022-08-07T18:00:34.584Z,25.53
2022-08-07T18:04:04.628Z,25.60
2022-08-07T18:06:33.355Z,25.25
2022-08-07T18:09:06.478Z,25.01
2022-08-07T18:12:17.689Z,25.08
2022-08-07T18:15:02.777Z,25.40
2022-08-07T18:18:46.130Z,24.93
2022-08-07T18:21:08.886Z,24.93
2022-08-07T18:23:43.194Z,25.14
2022-08-07T18:26:18.876Z,25.04
2022-08-07T18:29:02.767Z,24.62
2022-08-07T18:31:52.412Z,25.06
2022-08-07T18:34:53.584Z,24.80
2022-08-07T18:38:59.263Z,24.88
2022-08-07T18:41:16.854Z,24.98
2022-08-07T18:44:01.876Z,24.76
2022-08-07T18:46:43.169Z,24.57
2022-08-07T18:50:32.378Z,24.22
2022-08-07T18:52:52.914Z,24.29
2022-08-07T18:55:42.541Z,24.61
2022-08-07T18:58:36.796Z,24.23
2022-08-07T19:02:19.070Z,24.21
2022-08-07T19:04:28.184Z,24.39
2022-08-07T19:07:08.483Z,23.94
2022-08-07T19:10:18.466Z,23.93
2022-08-07T19:13:21.486Z,23.92
2022-08-07T19:17:01.527Z,23.87
2022-08-07T19:19:32.093Z,23.88
2022-08-07T19:22:30.830Z,23.74
2022-08-07T19:24:58.476Z,23.65
2022-08-07T19:28:57.982Z,23.49
2022-08-07T19:31:04.298Z,23.71
2022-08-07T19:33:15.841Z,23.72
2022-08-07T19:35:46.824Z,23.65
2022-08-07T19:38:17.816Z,23.41
2022-08-07T19:40:49.478Z,23.43
2022-08-07T19:43:21.936Z,23.34
2022-08-07T19:46:10.736Z,23.64
2022-08-07T19:48:53.514Z,23.31
2022-08-07T19:51:50.508Z,23.09
2022-08-07T19:54:35.067Z,23.06
2022-08-07T19:58:02.674Z,23.09
2022-08-07T19:59:54.183Z,23.09
2022-08-07T20:02:35.017Z,23.12
2022-08-07T20:05:08.994Z,23.05
2022-08-07T20:07:46.314Z,22.96
2022-08-07T20:10:51.742Z,22.92
2022-08-07T20:13:31.865Z,22.67
2022-08-07T20:16:02.100Z,22.56
2022-08-07T20:18:33.005Z,22.31
2022-08-07T20:21:03.725Z,22.31
2022-08-07T20:23:53.917Z,22.05
2022-08-07T20:26:32.212Z,22.01
2022-08-07T20:29:46.753Z,22.25
2022-08-07T20:32:00.199Z,22.31
2022-08-07T20:34:49.408Z,22.29
2022-08-07T20:37:22.372Z,22.29
2022-08-07T20:40:02.584Z,22.08
2022-08-07T20:42:33.707Z,22.15
2022-08-07T20:45:04.580Z,22.06
2022-08-07T20:47:56.027Z,21.72
2022-08-07T20:50:26.827Z,21.67
2022-08-07T20:52:53.935Z,21.76
2022-08-07T20:55:23.574Z,21.69
2022-08-07T20:58:04.164Z,21.76
2022-08-07T21:00:46.085Z,21.80
2022-08-07T21:03:16.863Z,21.80
2022-08-07T21:05:56.492Z,22.02
2022-08-07T21:08:37.521Z,22.11
2022-08-07T21:11:10.780Z,21.94
2022-08-07T21:13:57.876Z,21.89
2022-08-07T21:16:37.612Z,21.81
2022-08-07T21:19:15.908Z,21.92
2022-08-07T21:21:57.546Z,22.02
2022-08-07T21:24:47.922Z,21.78
2022-08-07T21:27:25.512Z,21.82
2022-08-07T21:30:09.802Z,21.82
2022-08-07T21:32:52.646Z,21.70
2022-08-07T21:35:34.488Z,21.73
2022-08-07T21:38:31.747Z,21.56
2022-08-07T21:41:38.315Z,21.57
2022-08-07T21:44:30.005Z,21.48
2022-08-07T21:47:07.528Z,21.40
2022-08-07T21:50:02.900Z,21.40
2022-08-07T21:53:07.709Z,21.59
2022-08-07T21:55:59.995Z,21.40
2022-08-07T21:58:40.158Z,21.38
2022-08-07T22:02:07.398Z,21.40
2022-08-07T22:04:35.267Z,21.19
2022-08-07T22:07:14.726Z,21.43
2022-08-07T22:09:54.168Z,21.36
2022-08-07T22:12:35.062Z,21.37
2022-08-07T22:16:38.517Z,21.42
2022-08-07T22:18:00.566Z,21.39
2022-08-07T22:20:49.908Z,21.72
2022-08-07T22:23:59.810Z,21.83
2022-08-07T22:26:29.383Z,21.72
2022-08-07T22:29:17.073Z,21.46
2022-08-07T22:32:30.525Z,21.59
2022-08-07T22:35:02.235Z,21.59
2022-08-07T22:38:03.090Z,21.76
2022-08-07T22:40:44.688Z,21.67
2022-08-07T22:43:18.173Z,21.75
2022-08-07T22:47:02.696Z,21.61
2022-08-07T22:49:19.251Z,21.42
2022-08-07T22:52:01.414Z,21.49
2022-08-07T22:54:40.133Z,21.42
2022-08-07T22:57:30.884Z,21.76
2022-08-07T23:00:21.586Z,21.55
2022-08-07T23:03:17.145Z,21.38
2022-08-07T23:06:16.600Z,21.41
2022-08-07T23:10:00.401Z,21.59
2022-08-07T23:12:06.289Z,21.16
2022-08-07T23:14:39.722Z,21.01
2022-08-07T23:17:30.776Z,21.00
2022-08-07T23:20:51.518Z,21.14
2022-08-07T23:24:07.100Z,20.97
2022-08-07T23:26:56.339Z,21.69
2022-08-07T23:29:43.621Z,21.79
2022-08-07T23:34:22.443Z,22.14
2022-08-07T23:36:00.766Z,22.21
2022-08-07T23:39:08.621Z,21.44
2022-08-07T23:42:04.638Z,21.36
2022-08-07T23:45:33.235Z,21.31
2022-08-07T23:48:27.765Z,21.51
2022-08-07T23:52:58.510Z,22.11
2022-08-07T23:54:44.150Z,22.12
2022-08-07T23:57:40.956Z,21.35
